Portada
METAR-TAF:

METAR-TAF

Aeropuertos :

Sinope, Turquía

latitud: 42-00-57N, longitud: 035-03-59E, altitud: 7 m

Observación

El informe se hizo hace 11 horas y 25 minutos, a las 13:50 UTC
Viento 5 kt del norte-noreste, variando entre norte-noreste y sur-sureste
Temperatura 7°C
Humedad 70%
Presión 1031 hPa
Visibilidad 10 km o más
Cielo nuboso a una altura de 3300 ft

METAR: LTCM 051350Z 03005KT 020V160 9999 BKN033 07/02 Q1031

Hora: 04:15 (01:15 UTC)

Pronóstico

El informe se hizo hace 8 horas y 35 minutos, a las 16:40 UTC
Pronóstico válido del 05 a las 18 UTC al 06 a las 03 UTC
Viento 2 kt con dirección variable
Visibilidad 10 km o más
Nubes dispersas a una altura de 3000 ft

TAF: LTCM 051640Z 0518/0603 VRB02KT 9999 SCT030

Observaciones y pronósticos meteorológicos de más de 4000 aeropuertos (mensajes METAR y TAF).

Los puntos amarillos y rojos representan las estaciones disponibles.

Ponga el ratón en el punto deseado para ver el nombre de la estación.

Haga clic para ver las observaciones y los pronósticos meteorológicos.

Para cambiar el mapa : haga clic en los botones verdes con una cruz de color negro para hacer un zoom, en el botón verde con un guión para alejar o en las flechas verdes para mapas adyacentes.


METAR-TAF: